createdAt,value
2017-07-20T18:26:43.424Z,4.43
2017-07-20T18:29:10.882Z,4.10
2017-07-20T18:31:38.347Z,4.60
2017-07-20T18:34:06.091Z,3.73
2017-07-20T18:36:33.559Z,5.00
2017-07-20T18:39:01.022Z,4.40
2017-07-20T18:41:28.519Z,4.43
2017-07-20T18:43:56.768Z,4.97
2017-07-20T18:46:24.346Z,5.10
2017-07-20T18:48:51.794Z,5.03
2017-07-20T18:51:19.263Z,4.70
2017-07-20T18:53:47.520Z,5.30
2017-07-20T18:56:14.992Z,5.90
2017-07-20T18:58:42.543Z,5.10
2017-07-20T19:01:10.011Z,5.90
2017-07-20T19:03:37.567Z,6.30
2017-07-20T19:06:05.031Z,5.93
2017-07-20T19:08:32.597Z,6.07
2017-07-20T19:11:00.066Z,6.17
2017-07-20T19:13:28.295Z,6.00
2017-07-20T19:15:55.871Z,6.60
2017-07-20T19:18:23.342Z,6.60
2017-07-20T19:20:50.832Z,6.50
2017-07-20T19:23:18.288Z,6.43
2017-07-20T19:25:45.806Z,6.53
2017-07-20T19:28:13.263Z,6.57
2017-07-20T19:30:40.818Z,6.33
2017-07-20T19:33:08.384Z,6.50
2017-07-20T19:35:35.951Z,6.97
2017-07-20T19:38:03.418Z,7.30
2017-07-20T19:40:31.675Z,6.40
2017-07-20T19:42:59.149Z,8.00
2017-07-20T19:45:26.728Z,7.20
2017-07-20T19:47:54.965Z,7.40
2017-07-20T19:50:22.423Z,6.57
2017-07-20T19:52:49.886Z,6.60
2017-07-20T19:55:17.450Z,7.10
2017-07-20T19:57:45.007Z,7.30
2017-07-20T20:00:12.470Z,6.30
2017-07-20T20:02:40.031Z,6.93
2017-07-20T20:05:07.487Z,7.40
2017-07-20T20:07:34.983Z,7.13
2017-07-20T20:10:02.467Z,5.50
2017-07-20T20:12:29.985Z,6.20
2017-07-20T20:14:58.233Z,6.57
2017-07-20T20:17:25.702Z,7.10
2017-07-20T20:19:53.259Z,5.77
2017-07-20T20:22:20.759Z,6.53
2017-07-20T20:24:48.228Z,6.90
2017-07-20T20:27:15.739Z,7.60
2017-07-20T20:29:43.298Z,7.10
2017-07-20T20:32:10.755Z,7.53
2017-07-20T20:34:38.232Z,7.20
2017-07-20T20:37:06.471Z,7.40
2017-07-20T20:39:34.048Z,7.23
2017-07-20T20:42:01.507Z,7.37
2017-07-20T20:44:28.964Z,7.40
2017-07-20T20:46:56.435Z,7.77
2017-07-20T20:49:24.704Z,7.00
2017-07-20T20:51:52.259Z,8.00
2017-07-20T20:54:19.714Z,8.20
2017-07-20T20:56:47.300Z,7.70
2017-07-20T20:59:15.523Z,7.33
2017-07-20T21:01:43.027Z,7.80
2017-07-20T21:04:10.491Z,7.50
2017-07-20T21:06:38.033Z,7.00
2017-07-20T21:09:05.490Z,7.57
2017-07-20T21:11:33.050Z,7.60
2017-07-20T21:14:00.519Z,7.50
2017-07-20T21:16:27.981Z,7.63
2017-07-20T21:18:55.451Z,8.10
2017-07-20T21:21:23.705Z,7.90
2017-07-20T21:23:51.258Z,8.10
2017-07-20T21:26:18.727Z,7.33
2017-07-20T21:28:51.570Z,7.87
2017-07-20T21:31:19.980Z,7.20
2017-07-20T21:33:47.452Z,7.80
2017-07-20T21:36:14.919Z,8.20
2017-07-20T21:38:43.146Z,8.00
2017-07-20T21:41:10.642Z,10.30
2017-07-20T21:43:38.098Z,9.20
2017-07-20T21:46:05.567Z,8.47
2017-07-20T21:48:33.115Z,7.93
2017-07-20T21:51:00.578Z,8.40
2017-07-20T21:53:28.038Z,9.07
2017-07-20T21:55:55.583Z,8.37
2017-07-20T21:58:23.047Z,8.73
2017-07-20T22:00:50.603Z,8.50
2017-07-20T22:03:18.171Z,8.67
2017-07-20T22:05:45.722Z,8.93
2017-07-20T22:08:13.288Z,9.73
2017-07-20T22:10:40.786Z,9.70
2017-07-20T22:13:08.263Z,9.33
2017-07-20T22:15:35.765Z,8.77
2017-07-20T22:18:03.325Z,7.60
2017-07-20T22:20:30.779Z,6.17
2017-07-20T22:22:58.344Z,8.87
2017-07-20T22:25:25.802Z,9.87
2017-07-20T22:27:53.288Z,9.00
2017-07-20T22:30:21.515Z,9.47
2017-07-20T22:32:48.982Z,9.93
2017-07-20T22:35:16.462Z,8.53
2017-07-20T22:37:44.028Z,8.53
2017-07-20T22:40:11.487Z,10.80
2017-07-20T22:42:39.740Z,8.83
2017-07-20T22:45:07.209Z,9.07
2017-07-20T22:47:34.768Z,7.00
2017-07-20T22:50:02.324Z,6.87
2017-07-20T22:52:29.790Z,6.43
2017-07-20T22:54:57.242Z,6.97
2017-07-20T22:57:25.119Z,6.83
2017-07-20T22:59:52.581Z,6.47
2017-07-20T23:02:20.811Z,7.57
2017-07-20T23:04:48.306Z,7.33
2017-07-20T23:07:15.858Z,7.60
2017-07-20T23:09:43.322Z,6.97
2017-07-20T23:12:10.795Z,6.27
2017-07-20T23:14:38.259Z,6.80
2017-07-20T23:17:06.510Z,6.73
2017-07-20T23:19:34.066Z,5.80
2017-07-20T23:22:01.527Z,6.73
2017-07-20T23:24:29.002Z,6.00
2017-07-20T23:26:57.364Z,5.33
2017-07-20T23:29:24.923Z,5.13
2017-07-20T23:31:52.382Z,5.00
2017-07-20T23:34:19.851Z,5.40
2017-07-20T23:36:47.331Z,3.67
2017-07-20T23:39:15.577Z,4.70
2017-07-20T23:41:43.038Z,3.70
2017-07-20T23:44:10.591Z,4.77
2017-07-20T23:46:38.160Z,4.30
2017-07-20T23:49:05.630Z,4.73
2017-07-20T23:51:33.858Z,4.70
2017-07-20T23:54:01.356Z,4.33
2017-07-20T23:56:28.827Z,3.60
2017-07-20T23:58:57.061Z,4.37
